sensor_id;sensor_type;location;lat;lon;timestamp;pressure;altitude;pressure_sealevel;temperature;humidity
3102;BME280;1561;42.666;23.392;2023-11-21T00:01:18;95061.78;;;4.63;100.00
3102;BME280;1561;42.666;23.392;2023-11-21T00:03:49;95067.91;;;4.73;100.00
3102;BME280;1561;42.666;23.392;2023-11-21T00:06:28;95051.72;;;4.75;100.00
3102;BME280;1561;42.666;23.392;2023-11-21T00:08:58;95036.63;;;4.33;100.00
3102;BME280;1561;42.666;23.392;2023-11-21T00:11:29;94963.22;;;3.93;100.00
3102;BME280;1561;42.666;23.392;2023-11-21T00:14:06;95034.09;;;4.33;100.00
3102;BME280;1561;42.666;23.392;2023-11-21T00:16:36;95052.84;;;4.43;100.00
3102;BME280;1561;42.666;23.392;2023-11-21T00:19:07;95008.78;;;4.05;100.00
3102;BME280;1561;42.666;23.392;2023-11-21T00:21:40;95057.72;;;4.32;100.00
3102;BME280;1561;42.666;23.392;2023-11-21T00:24:23;95049.06;;;4.22;100.00
3102;BME280;1561;42.666;23.392;2023-11-21T00:26:55;95063.97;;;4.27;100.00
3102;BME280;1561;42.666;23.392;2023-11-21T00:29:25;95054.03;;;4.24;100.00
3102;BME280;1561;42.666;23.392;2023-11-21T00:31:54;95047.72;;;4.31;100.00
3102;BME280;1561;42.666;23.392;2023-11-21T00:34:30;95039.69;;;4.24;100.00
3102;BME280;1561;42.666;23.392;2023-11-21T00:37:01;95048.44;;;4.33;100.00
3102;BME280;1561;42.666;23.392;2023-11-21T00:39:31;95051.03;;;4.31;100.00
3102;BME280;1561;42.666;23.392;2023-11-21T00:42:12;95043.19;;;4.22;100.00
3102;BME280;1561;42.666;23.392;2023-11-21T00:44:52;95045.28;;;4.29;100.00
3102;BME280;1561;42.666;23.392;2023-11-21T00:47:26;95056.66;;;4.22;100.00
3102;BME280;1561;42.666;23.392;2023-11-21T00:50:00;95056.66;;;4.22;100.00
3102;BME280;1561;42.666;23.392;2023-11-21T00:52:35;95042.63;;;4.03;100.00
3102;BME280;1561;42.666;23.392;2023-11-21T00:55:09;95058.53;;;4.05;100.00
3102;BME280;1561;42.666;23.392;2023-11-21T00:57:44;95040.84;;;4.05;100.00
3102;BME280;1561;42.666;23.392;2023-11-21T01:00:20;95038.03;;;4.09;100.00
3102;BME280;1561;42.666;23.392;2023-11-21T01:02:56;94955.16;;;3.44;100.00
3102;BME280;1561;42.666;23.392;2023-11-21T01:05:36;95047.75;;;3.87;100.00
3102;BME280;1561;42.666;23.392;2023-11-21T01:08:05;95040.09;;;3.89;100.00
3102;BME280;1561;42.666;23.392;2023-11-21T01:10:43;95041.63;;;3.77;100.00
3102;BME280;1561;42.666;23.392;2023-11-21T01:13:18;95044.06;;;3.79;100.00
3102;BME280;1561;42.666;23.392;2023-11-21T01:15:51;95035.66;;;3.78;100.00
3102;BME280;1561;42.666;23.392;2023-11-21T01:18:21;95025.22;;;3.84;100.00
3102;BME280;1561;42.666;23.392;2023-11-21T01:21:03;95034.50;;;3.98;100.00
3102;BME280;1561;42.666;23.392;2023-11-21T01:23:33;95027.41;;;4.04;100.00
3102;BME280;1561;42.666;23.392;2023-11-21T01:26:05;95044.78;;;3.95;100.00
3102;BME280;1561;42.666;23.392;2023-11-21T01:28:38;95046.44;;;3.96;100.00
3102;BME280;1561;42.666;23.392;2023-11-21T01:31:08;95046.31;;;3.83;100.00
3102;BME280;1561;42.666;23.392;2023-11-21T01:33:39;95045.13;;;3.75;100.00
3102;BME280;1561;42.666;23.392;2023-11-21T01:36:19;95039.31;;;3.59;100.00
3102;BME280;1561;42.666;23.392;2023-11-21T01:38:49;95006.31;;;3.62;100.00
3102;BME280;1561;42.666;23.392;2023-11-21T01:41:18;95048.88;;;3.54;100.00
3102;BME280;1561;42.666;23.392;2023-11-21T01:44:03;95044.44;;;3.57;100.00
3102;BME280;1561;42.666;23.392;2023-11-21T01:46:35;95049.94;;;3.50;100.00
3102;BME280;1561;42.666;23.392;2023-11-21T01:49:12;95056.72;;;3.49;100.00
3102;BME280;1561;42.666;23.392;2023-11-21T01:51:48;95019.53;;;3.08;100.00
3102;BME280;1561;42.666;23.392;2023-11-21T01:54:39;94980.81;;;2.78;100.00
3102;BME280;1561;42.666;23.392;2023-11-21T01:57:09;95029.25;;;3.14;100.00
3102;BME280;1561;42.666;23.392;2023-11-21T01:59:44;95019.84;;;3.02;100.00
3102;BME280;1561;42.666;23.392;2023-11-21T02:02:16;95033.44;;;2.99;100.00
3102;BME280;1561;42.666;23.392;2023-11-21T02:04:56;95034.81;;;3.05;100.00
3102;BME280;1561;42.666;23.392;2023-11-21T02:07:29;95026.06;;;2.81;100.00
3102;BME280;1561;42.666;23.392;2023-11-21T02:10:07;95034.19;;;2.86;100.00
3102;BME280;1561;42.666;23.392;2023-11-21T02:12:48;95023.78;;;2.76;100.00
3102;BME280;1561;42.666;23.392;2023-11-21T02:15:17;95039.72;;;2.77;100.00
3102;BME280;1561;42.666;23.392;2023-11-21T02:17:50;95017.19;;;2.74;100.00
3102;BME280;1561;42.666;23.392;2023-11-21T02:20:22;95041.75;;;2.86;100.00
3102;BME280;1561;42.666;23.392;2023-11-21T02:22:58;95041.06;;;2.98;100.00
3102;BME280;1561;42.666;23.392;2023-11-21T02:25:34;95034.56;;;2.94;100.00
3102;BME280;1561;42.666;23.392;2023-11-21T02:28:10;95006.75;;;2.80;100.00
3102;BME280;1561;42.666;23.392;2023-11-21T02:30:45;95010.59;;;2.87;100.00
3102;BME280;1561;42.666;23.392;2023-11-21T02:33:32;95030.41;;;3.08;100.00
3102;BME280;1561;42.666;23.392;2023-11-21T02:36:11;95024.84;;;3.17;100.00
3102;BME280;1561;42.666;23.392;2023-11-21T02:39:05;95016.16;;;3.07;100.00
3102;BME280;1561;42.666;23.392;2023-11-21T02:41:41;95016.66;;;3.14;100.00
3102;BME280;1561;42.666;23.392;2023-11-21T02:44:13;95027.09;;;3.08;100.00
3102;BME280;1561;42.666;23.392;2023-11-21T02:46:52;95011.47;;;3.01;100.00
3102;BME280;1561;42.666;23.392;2023-11-21T02:49:23;95028.72;;;3.09;100.00
3102;BME280;1561;42.666;23.392;2023-11-21T02:55:06;95028.88;;;2.90;100.00
3102;BME280;1561;42.666;23.392;2023-11-21T02:57:54;95024.97;;;2.85;100.00
3102;BME280;1561;42.666;23.392;2023-11-21T03:00:34;95033.38;;;2.85;100.00
3102;BME280;1561;42.666;23.392;2023-11-21T03:03:04;95032.53;;;2.85;100.00
3102;BME280;1561;42.666;23.392;2023-11-21T03:05:39;95028.91;;;2.75;100.00
3102;BME280;1561;42.666;23.392;2023-11-21T03:08:13;94991.72;;;2.47;100.00
3102;BME280;1561;42.666;23.392;2023-11-21T03:11:10;95005.38;;;2.90;100.00
3102;BME280;1561;42.666;23.392;2023-11-21T03:13:47;95023.53;;;2.96;100.00
3102;BME280;1561;42.666;23.392;2023-11-21T03:16:50;95023.53;;;2.96;100.00
3102;BME280;1561;42.666;23.392;2023-11-21T03:19:32;95023.19;;;3.02;100.00
3102;BME280;1561;42.666;23.392;2023-11-21T03:22:05;95024.56;;;3.08;100.00
3102;BME280;1561;42.666;23.392;2023-11-21T03:24:39;94998.06;;;2.85;100.00
3102;BME280;1561;42.666;23.392;2023-11-21T03:27:21;95014.63;;;3.05;100.00
3102;BME280;1561;42.666;23.392;2023-11-21T03:29:56;95034.38;;;3.12;100.00
3102;BME280;1561;42.666;23.392;2023-11-21T03:32:43;95038.41;;;3.01;100.00
3102;BME280;1561;42.666;23.392;2023-11-21T03:35:25;95039.22;;;2.86;100.00
3102;BME280;1561;42.666;23.392;2023-11-21T03:38:30;95007.66;;;2.63;100.00
3102;BME280;1561;42.666;23.392;2023-11-21T03:41:29;95038.00;;;2.77;100.00
3102;BME280;1561;42.666;23.392;2023-11-21T03:44:08;95025.56;;;2.90;100.00
3102;BME280;1561;42.666;23.392;2023-11-21T03:46:37;95036.28;;;2.93;100.00
3102;BME280;1561;42.666;23.392;2023-11-21T03:49:10;95007.66;;;2.94;100.00
3102;BME280;1561;42.666;23.392;2023-11-21T03:51:41;95027.59;;;2.99;100.00
3102;BME280;1561;42.666;23.392;2023-11-21T03:54:25;94937.50;;;2.56;100.00
3102;BME280;1561;42.666;23.392;2023-11-21T03:57:10;95005.72;;;3.13;100.00
3102;BME280;1561;42.666;23.392;2023-11-21T03:59:55;95003.94;;;3.15;100.00
3102;BME280;1561;42.666;23.392;2023-11-21T04:02:23;95009.44;;;3.08;100.00
3102;BME280;1561;42.666;23.392;2023-11-21T04:04:59;94913.44;;;2.35;100.00
3102;BME280;1561;42.666;23.392;2023-11-21T04:07:55;95012.53;;;2.97;100.00
3102;BME280;1561;42.666;23.392;2023-11-21T04:10:24;94989.28;;;2.92;100.00
3102;BME280;1561;42.666;23.392;2023-11-21T04:12:55;95011.53;;;3.15;100.00
3102;BME280;1561;42.666;23.392;2023-11-21T04:18:26;95008.38;;;3.12;100.00
3102;BME280;1561;42.666;23.392;2023-11-21T04:20:55;95010.34;;;3.36;100.00
3102;BME280;1561;42.666;23.392;2023-11-21T04:23:26;95008.19;;;2.99;100.00
3102;BME280;1561;42.666;23.392;2023-11-21T04:25:58;95020.03;;;2.83;100.00
3102;BME280;1561;42.666;23.392;2023-11-21T04:28:42;95005.47;;;2.88;100.00
3102;BME280;1561;42.666;23.392;2023-11-21T04:31:13;94868.09;;;2.19;100.00
3102;BME280;1561;42.666;23.392;2023-11-21T04:33:58;94997.41;;;2.82;100.00
3102;BME280;1561;42.666;23.392;2023-11-21T04:36:31;95004.72;;;2.86;100.00
3102;BME280;1561;42.666;23.392;2023-11-21T04:42:05;94924.72;;;2.74;100.00
3102;BME280;1561;42.666;23.392;2023-11-21T04:44:51;94973.19;;;3.09;100.00
3102;BME280;1561;42.666;23.392;2023-11-21T04:47:33;94973.97;;;3.25;100.00
3102;BME280;1561;42.666;23.392;2023-11-21T04:50:22;95008.13;;;3.30;100.00
3102;BME280;1561;42.666;23.392;2023-11-21T04:53:06;95007.00;;;3.50;100.00
3102;BME280;1561;42.666;23.392;2023-11-21T04:55:50;95002.78;;;3.50;100.00
3102;BME280;1561;42.666;23.392;2023-11-21T04:58:33;95011.00;;;3.24;100.00
3102;BME280;1561;42.666;23.392;2023-11-21T05:01:19;94962.75;;;3.15;100.00
3102;BME280;1561;42.666;23.392;2023-11-21T05:04:04;94976.53;;;3.09;100.00
3102;BME280;1561;42.666;23.392;2023-11-21T05:06:43;95005.50;;;3.18;100.00
3102;BME280;1561;42.666;23.392;2023-11-21T05:09:13;94893.19;;;2.52;100.00
3102;BME280;1561;42.666;23.392;2023-11-21T05:11:52;95003.88;;;3.17;100.00
3102;BME280;1561;42.666;23.392;2023-11-21T05:14:44;95003.34;;;3.26;100.00
3102;BME280;1561;42.666;23.392;2023-11-21T05:17:30;95001.81;;;3.67;100.00
3102;BME280;1561;42.666;23.392;2023-11-21T05:20:31;94976.34;;;3.42;100.00
3102;BME280;1561;42.666;23.392;2023-11-21T05:23:11;94967.94;;;3.27;100.00
3102;BME280;1561;42.666;23.392;2023-11-21T05:25:43;94995.66;;;3.43;100.00
3102;BME280;1561;42.666;23.392;2023-11-21T05:28:18;94988.88;;;3.43;100.00
3102;BME280;1561;42.666;23.392;2023-11-21T05:30:46;95004.78;;;3.45;100.00
3102;BME280;1561;42.666;23.392;2023-11-21T05:33:20;95016.56;;;3.45;100.00
3102;BME280;1561;42.666;23.392;2023-11-21T05:36:10;95026.22;;;3.52;100.00
3102;BME280;1561;42.666;23.392;2023-11-21T05:39:06;95026.53;;;3.62;100.00
3102;BME280;1561;42.666;23.392;2023-11-21T05:41:50;95012.81;;;3.52;100.00
3102;BME280;1561;42.666;23.392;2023-11-21T05:44:36;95007.16;;;3.62;100.00
3102;BME280;1561;42.666;23.392;2023-11-21T05:47:07;94998.22;;;3.71;100.00
3102;BME280;1561;42.666;23.392;2023-11-21T05:49:44;94983.78;;;3.73;100.00
3102;BME280;1561;42.666;23.392;2023-11-21T05:52:22;95028.84;;;4.08;100.00
3102;BME280;1561;42.666;23.392;2023-11-21T05:55:18;95017.34;;;3.75;100.00
3102;BME280;1561;42.666;23.392;2023-11-21T05:57:54;95006.94;;;3.51;100.00
3102;BME280;1561;42.666;23.392;2023-11-21T06:00:41;94996.31;;;3.17;100.00
3102;BME280;1561;42.666;23.392;2023-11-21T06:03:14;95016.41;;;3.48;100.00
3102;BME280;1561;42.666;23.392;2023-11-21T06:06:01;95019.03;;;3.60;100.00
3102;BME280;1561;42.666;23.392;2023-11-21T06:08:41;95000.44;;;3.61;100.00
3102;BME280;1561;42.666;23.392;2023-11-21T06:11:47;94973.34;;;3.65;100.00
3102;BME280;1561;42.666;23.392;2023-11-21T06:14:31;95021.31;;;3.65;100.00
3102;BME280;1561;42.666;23.392;2023-11-21T06:17:07;95023.31;;;4.16;100.00
3102;BME280;1561;42.666;23.392;2023-11-21T06:19:45;95031.19;;;4.39;100.00
3102;BME280;1561;42.666;23.392;2023-11-21T06:22:18;95041.19;;;4.55;100.00
3102;BME280;1561;42.666;23.392;2023-11-21T06:24:56;95035.59;;;4.50;100.00
3102;BME280;1561;42.666;23.392;2023-11-21T06:27:51;95040.91;;;4.59;100.00
3102;BME280;1561;42.666;23.392;2023-11-21T06:30:34;95034.63;;;4.24;100.00
3102;BME280;1561;42.666;23.392;2023-11-21T06:33:16;95037.16;;;5.58;100.00
3102;BME280;1561;42.666;23.392;2023-11-21T06:36:12;95037.72;;;5.37;100.00
3102;BME280;1561;42.666;23.392;2023-11-21T06:38:42;95027.28;;;5.80;100.00
3102;BME280;1561;42.666;23.392;2023-11-21T06:41:17;94945.28;;;5.81;100.00
3102;BME280;1561;42.666;23.392;2023-11-21T06:44:06;95011.31;;;6.53;100.00
3102;BME280;1561;42.666;23.392;2023-11-21T06:46:54;95020.72;;;7.00;100.00
3102;BME280;1561;42.666;23.392;2023-11-21T06:49:34;95043.19;;;7.87;100.00
3102;BME280;1561;42.666;23.392;2023-11-21T06:52:21;95032.94;;;7.31;100.00
3102;BME280;1561;42.666;23.392;2023-11-21T06:55:04;95048.28;;;7.64;100.00
3102;BME280;1561;42.666;23.392;2023-11-21T06:57:50;95046.09;;;8.61;100.00
3102;BME280;1561;42.666;23.392;2023-11-21T07:03:35;95038.75;;;10.37;100.00
3102;BME280;1561;42.666;23.392;2023-11-21T07:06:38;95044.88;;;9.52;100.00
3102;BME280;1561;42.666;23.392;2023-11-21T07:09:20;95025.06;;;9.97;100.00
3102;BME280;1561;42.666;23.392;2023-11-21T07:11:51;95019.22;;;10.06;100.00
3102;BME280;1561;42.666;23.392;2023-11-21T07:14:32;95039.84;;;9.62;100.00
3102;BME280;1561;42.666;23.392;2023-11-21T07:17:03;95021.97;;;8.87;100.00
3102;BME280;1561;42.666;23.392;2023-11-21T07:19:43;95019.19;;;8.90;100.00
3102;BME280;1561;42.666;23.392;2023-11-21T07:22:17;95024.16;;;9.35;100.00
3102;BME280;1561;42.666;23.392;2023-11-21T07:25:01;95030.16;;;9.13;100.00
3102;BME280;1561;42.666;23.392;2023-11-21T07:27:37;94961.25;;;8.50;100.00
3102;BME280;1561;42.666;23.392;2023-11-21T07:30:16;95034.50;;;8.46;100.00
3102;BME280;1561;42.666;23.392;2023-11-21T07:32:44;95007.53;;;8.44;100.00
3102;BME280;1561;42.666;23.392;2023-11-21T07:35:43;95023.84;;;9.28;100.00
3102;BME280;1561;42.666;23.392;2023-11-21T07:38:14;95020.81;;;9.66;100.00
3102;BME280;1561;42.666;23.392;2023-11-21T07:40:45;95035.19;;;9.35;100.00
3102;BME280;1561;42.666;23.392;2023-11-21T07:43:17;94999.41;;;8.72;100.00
3102;BME280;1561;42.666;23.392;2023-11-21T07:45:45;95033.44;;;8.71;100.00
3102;BME280;1561;42.666;23.392;2023-11-21T07:48:18;95005.72;;;9.42;100.00
3102;BME280;1561;42.666;23.392;2023-11-21T07:51:13;95015.63;;;8.82;100.00
3102;BME280;1561;42.666;23.392;2023-11-21T07:53:48;95028.06;;;9.07;100.00
3102;BME280;1561;42.666;23.392;2023-11-21T07:56:17;95025.81;;;8.60;100.00
3102;BME280;1561;42.666;23.392;2023-11-21T07:58:50;95016.56;;;9.24;100.00
3102;BME280;1561;42.666;23.392;2023-11-21T08:01:21;95017.41;;;9.45;100.00
3102;BME280;1561;42.666;23.392;2023-11-21T08:03:55;94992.59;;;9.99;100.00
3102;BME280;1561;42.666;23.392;2023-11-21T08:10:03;95004.75;;;9.75;100.00
3102;BME280;1561;42.666;23.392;2023-11-21T08:12:45;95008.69;;;8.29;100.00
3102;BME280;1561;42.666;23.392;2023-11-21T08:15:22;94991.06;;;8.04;100.00
3102;BME280;1561;42.666;23.392;2023-11-21T08:18:04;94999.28;;;8.18;100.00
3102;BME280;1561;42.666;23.392;2023-11-21T08:20:37;94993.38;;;9.27;100.00
3102;BME280;1561;42.666;23.392;2023-11-21T08:23:20;94980.47;;;10.12;100.00
3102;BME280;1561;42.666;23.392;2023-11-21T08:25:58;94992.53;;;10.10;100.00
3102;BME280;1561;42.666;23.392;2023-11-21T08:28:34;94985.44;;;10.43;100.00
3102;BME280;1561;42.666;23.392;2023-11-21T08:34:12;94954.69;;;9.94;100.00
3102;BME280;1561;42.666;23.392;2023-11-21T08:37:03;95004.34;;;10.11;100.00
3102;BME280;1561;42.666;23.392;2023-11-21T08:39:44;95001.94;;;10.39;100.00
3102;BME280;1561;42.666;23.392;2023-11-21T08:42:21;94939.22;;;10.46;100.00
3102;BME280;1561;42.666;23.392;2023-11-21T08:45:06;95003.25;;;10.64;100.00
3102;BME280;1561;42.666;23.392;2023-11-21T08:47:47;94996.63;;;9.81;100.00
3102;BME280;1561;42.666;23.392;2023-11-21T08:50:18;94948.03;;;9.41;100.00
3102;BME280;1561;42.666;23.392;2023-11-21T08:53:15;94996.53;;;10.33;100.00
3102;BME280;1561;42.666;23.392;2023-11-21T08:55:58;94997.59;;;9.17;100.00
3102;BME280;1561;42.666;23.392;2023-11-21T08:58:44;94996.59;;;10.42;100.00
3102;BME280;1561;42.666;23.392;2023-11-21T09:01:13;94918.56;;;10.19;100.00
3102;BME280;1561;42.666;23.392;2023-11-21T09:03:54;94985.13;;;10.37;100.00
3102;BME280;1561;42.666;23.392;2023-11-21T09:07:19;94974.28;;;10.84;100.00
3102;BME280;1561;42.666;23.392;2023-11-21T09:09:56;94944.28;;;10.27;100.00
3102;BME280;1561;42.666;23.392;2023-11-21T09:12:34;94963.19;;;10.64;100.00
3102;BME280;1561;42.666;23.392;2023-11-21T09:15:33;94904.16;;;9.06;100.00
3102;BME280;1561;42.666;23.392;2023-11-21T09:18:24;94940.44;;;9.51;100.00
3102;BME280;1561;42.666;23.392;2023-11-21T09:20:55;94935.72;;;9.67;100.00
3102;BME280;1561;42.666;23.392;2023-11-21T09:23:25;94936.63;;;10.07;100.00
3102;BME280;1561;42.666;23.392;2023-11-21T09:26:03;94924.88;;;9.54;100.00
3102;BME280;1561;42.666;23.392;2023-11-21T09:28:37;94907.78;;;9.45;100.00
3102;BME280;1561;42.666;23.392;2023-11-21T09:31:14;94908.81;;;10.04;100.00
3102;BME280;1561;42.666;23.392;2023-11-21T09:33:52;94904.69;;;10.52;100.00
3102;BME280;1561;42.666;23.392;2023-11-21T09:36:25;94902.03;;;10.14;100.00
3102;BME280;1561;42.666;23.392;2023-11-21T09:39:00;94887.16;;;9.98;100.00
3102;BME280;1561;42.666;23.392;2023-11-21T09:41:46;94870.59;;;10.81;100.00
3102;BME280;1561;42.666;23.392;2023-11-21T09:44:42;94864.22;;;11.52;100.00
3102;BME280;1561;42.666;23.392;2023-11-21T09:47:26;94820.34;;;11.37;100.00
3102;BME280;1561;42.666;23.392;2023-11-21T09:49:57;94855.75;;;11.51;100.00
3102;BME280;1561;42.666;23.392;2023-11-21T09:52:57;94852.56;;;12.67;100.00
3102;BME280;1561;42.666;23.392;2023-11-21T09:55:28;94845.69;;;12.67;100.00
3102;BME280;1561;42.666;23.392;2023-11-21T09:58:05;94832.66;;;12.61;100.00
3102;BME280;1561;42.666;23.392;2023-11-21T10:00:41;94813.66;;;13.41;100.00
3102;BME280;1561;42.666;23.392;2023-11-21T10:03:30;94824.69;;;12.19;100.00
3102;BME280;1561;42.666;23.392;2023-11-21T10:06:06;94821.88;;;12.13;100.00
3102;BME280;1561;42.666;23.392;2023-11-21T10:08:47;94799.28;;;12.88;100.00
3102;BME280;1561;42.666;23.392;2023-11-21T10:11:18;94781.31;;;13.23;100.00
3102;BME280;1561;42.666;23.392;2023-11-21T10:13:52;94806.13;;;13.99;100.00
3102;BME280;1561;42.666;23.392;2023-11-21T10:16:34;94819.44;;;13.69;100.00
3102;BME280;1561;42.666;23.392;2023-11-21T10:19:11;94810.50;;;15.92;93.06
3102;BME280;1561;42.666;23.392;2023-11-21T10:21:44;94795.75;;;16.16;82.29
3102;BME280;1561;42.666;23.392;2023-11-21T10:24:31;94798.03;;;15.01;88.01
3102;BME280;1561;42.666;23.392;2023-11-21T10:27:02;94789.84;;;15.37;88.64
3102;BME280;1561;42.666;23.392;2023-11-21T10:29:37;94784.69;;;13.23;100.00
3102;BME280;1561;42.666;23.392;2023-11-21T10:32:17;94785.91;;;13.70;100.00
3102;BME280;1561;42.666;23.392;2023-11-21T10:35:05;94786.78;;;14.94;92.58
3102;BME280;1561;42.666;23.392;2023-11-21T10:37:37;94781.16;;;15.38;86.22
3102;BME280;1561;42.666;23.392;2023-11-21T10:40:10;94785.22;;;13.94;90.00
3102;BME280;1561;42.666;23.392;2023-11-21T10:42:45;94775.88;;;13.51;97.41
3102;BME280;1561;42.666;23.392;2023-11-21T10:45:31;94769.34;;;13.57;96.59
3102;BME280;1561;42.666;23.392;2023-11-21T10:48:14;94738.81;;;12.42;100.00
3102;BME280;1561;42.666;23.392;2023-11-21T10:50:59;94766.31;;;11.96;100.00
3102;BME280;1561;42.666;23.392;2023-11-21T10:53:31;94774.56;;;12.34;100.00
3102;BME280;1561;42.666;23.392;2023-11-21T10:56:19;94775.59;;;11.97;100.00
3102;BME280;1561;42.666;23.392;2023-11-21T10:59:02;94758.09;;;12.19;100.00
3102;BME280;1561;42.666;23.392;2023-11-21T11:01:34;94734.09;;;11.39;100.00
3102;BME280;1561;42.666;23.392;2023-11-21T11:04:06;94744.38;;;11.93;100.00
3102;BME280;1561;42.666;23.392;2023-11-21T11:07:09;94762.63;;;12.25;100.00
3102;BME280;1561;42.666;23.392;2023-11-21T11:09:38;94737.66;;;12.10;100.00
3102;BME280;1561;42.666;23.392;2023-11-21T11:12:08;94729.22;;;12.09;100.00
3102;BME280;1561;42.666;23.392;2023-11-21T11:14:41;94728.69;;;12.06;100.00
3102;BME280;1561;42.666;23.392;2023-11-21T11:17:13;94722.72;;;12.15;100.00
3102;BME280;1561;42.666;23.392;2023-11-21T11:19:45;94744.72;;;12.25;100.00
3102;BME280;1561;42.666;23.392;2023-11-21T11:22:44;94691.72;;;11.73;100.00
3102;BME280;1561;42.666;23.392;2023-11-21T11:25:34;94709.28;;;11.49;100.00
3102;BME280;1561;42.666;23.392;2023-11-21T11:28:14;94693.69;;;11.97;100.00
3102;BME280;1561;42.666;23.392;2023-11-21T11:31:10;94715.84;;;11.88;100.00
3102;BME280;1561;42.666;23.392;2023-11-21T11:33:48;94653.75;;;11.59;100.00
3102;BME280;1561;42.666;23.392;2023-11-21T11:36:31;94713.19;;;11.80;100.00
3102;BME280;1561;42.666;23.392;2023-11-21T11:39:30;94689.16;;;11.91;100.00
3102;BME280;1561;42.666;23.392;2023-11-21T11:42:07;94684.88;;;11.91;100.00
3102;BME280;1561;42.666;23.392;2023-11-21T11:44:49;94688.38;;;12.08;100.00
3102;BME280;1561;42.666;23.392;2023-11-21T11:47:23;94549.38;;;11.45;100.00
3102;BME280;1561;42.666;23.392;2023-11-21T11:50:08;94705.53;;;11.80;100.00
3102;BME280;1561;42.666;23.392;2023-11-21T11:52:45;94708.41;;;12.12;100.00
3102;BME280;1561;42.666;23.392;2023-11-21T11:55:27;94720.00;;;11.26;100.00
3102;BME280;1561;42.666;23.392;2023-11-21T11:58:00;94722.53;;;10.89;100.00
3102;BME280;1561;42.666;23.392;2023-11-21T12:00:38;94721.47;;;11.28;100.00
3102;BME280;1561;42.666;23.392;2023-11-21T12:03:44;94713.97;;;11.17;100.00
3102;BME280;1561;42.666;23.392;2023-11-21T12:06:15;94681.84;;;11.15;100.00
3102;BME280;1561;42.666;23.392;2023-11-21T12:09:03;94667.88;;;11.09;100.00
3102;BME280;1561;42.666;23.392;2023-11-21T12:12:02;94719.03;;;11.36;100.00
3102;BME280;1561;42.666;23.392;2023-11-21T12:14:38;94703.09;;;11.15;100.00
3102;BME280;1561;42.666;23.392;2023-11-21T12:17:10;94689.00;;;11.11;100.00
3102;BME280;1561;42.666;23.392;2023-11-21T12:20:02;94666.66;;;10.58;100.00
3102;BME280;1561;42.666;23.392;2023-11-21T12:22:44;94669.22;;;10.58;100.00
3102;BME280;1561;42.666;23.392;2023-11-21T12:25:15;94719.72;;;10.73;100.00
3102;BME280;1561;42.666;23.392;2023-11-21T12:28:05;94714.25;;;10.49;100.00
3102;BME280;1561;42.666;23.392;2023-11-21T12:30:34;94700.78;;;10.66;100.00
3102;BME280;1561;42.666;23.392;2023-11-21T12:33:11;94710.34;;;10.36;100.00
3102;BME280;1561;42.666;23.392;2023-11-21T12:35:45;94722.97;;;10.56;100.00
3102;BME280;1561;42.666;23.392;2023-11-21T12:38:23;94721.34;;;10.46;100.00
3102;BME280;1561;42.666;23.392;2023-11-21T12:40:56;94706.03;;;10.55;100.00
3102;BME280;1561;42.666;23.392;2023-11-21T12:44:19;94607.72;;;9.17;100.00
3102;BME280;1561;42.666;23.392;2023-11-21T12:47:11;94571.81;;;9.20;100.00
3102;BME280;1561;42.666;23.392;2023-11-21T12:53:31;94705.78;;;10.20;100.00
3102;BME280;1561;42.666;23.392;2023-11-21T12:56:48;94660.88;;;9.99;100.00
3102;BME280;1561;42.666;23.392;2023-11-21T12:59:34;94684.94;;;10.34;100.00
3102;BME280;1561;42.666;23.392;2023-11-21T13:02:04;94636.16;;;9.71;100.00
3102;BME280;1561;42.666;23.392;2023-11-21T13:04:34;94669.75;;;10.52;100.00
3102;BME280;1561;42.666;23.392;2023-11-21T13:07:07;94642.75;;;10.40;100.00
3102;BME280;1561;42.666;23.392;2023-11-21T13:09:41;94682.25;;;10.26;100.00
3102;BME280;1561;42.666;23.392;2023-11-21T13:12:31;94667.06;;;10.53;100.00
3102;BME280;1561;42.666;23.392;2023-11-21T13:15:24;94666.66;;;10.48;100.00
3102;BME280;1561;42.666;23.392;2023-11-21T13:17:58;94613.63;;;10.23;100.00
3102;BME280;1561;42.666;23.392;2023-11-21T13:20:42;94678.91;;;10.07;100.00
3102;BME280;1561;42.666;23.392;2023-11-21T13:23:13;94672.59;;;10.20;100.00
3102;BME280;1561;42.666;23.392;2023-11-21T13:25:56;94638.47;;;10.40;100.00
3102;BME280;1561;42.666;23.392;2023-11-21T13:28:32;94660.34;;;10.62;100.00
3102;BME280;1561;42.666;23.392;2023-11-21T13:31:41;94660.84;;;10.75;100.00
3102;BME280;1561;42.666;23.392;2023-11-21T13:34:22;94658.97;;;10.67;100.00
3102;BME280;1561;42.666;23.392;2023-11-21T13:36:54;94652.38;;;10.74;100.00
3102;BME280;1561;42.666;23.392;2023-11-21T13:39:30;94662.19;;;10.60;100.00
3102;BME280;1561;42.666;23.392;2023-11-21T13:41:58;94579.09;;;9.62;100.00
3102;BME280;1561;42.666;23.392;2023-11-21T13:44:31;94635.09;;;9.92;100.00
3102;BME280;1561;42.666;23.392;2023-11-21T13:47:30;94658.63;;;10.24;100.00
3102;BME280;1561;42.666;23.392;2023-11-21T13:50:01;94657.16;;;10.12;100.00
3102;BME280;1561;42.666;23.392;2023-11-21T13:52:50;94660.91;;;10.18;100.00
3102;BME280;1561;42.666;23.392;2023-11-21T13:55:21;94661.56;;;10.29;100.00
3102;BME280;1561;42.666;23.392;2023-11-21T14:00:46;94653.38;;;10.16;100.00
3102;BME280;1561;42.666;23.392;2023-11-21T14:03:33;94633.91;;;10.06;100.00
3102;BME280;1561;42.666;23.392;2023-11-21T14:06:11;94638.75;;;10.09;100.00
3102;BME280;1561;42.666;23.392;2023-11-21T14:08:50;94645.31;;;10.30;100.00
3102;BME280;1561;42.666;23.392;2023-11-21T14:11:33;94646.09;;;10.50;100.00
3102;BME280;1561;42.666;23.392;2023-11-21T14:14:17;94638.47;;;10.02;100.00
3102;BME280;1561;42.666;23.392;2023-11-21T14:16:57;94646.66;;;10.06;100.00
3102;BME280;1561;42.666;23.392;2023-11-21T14:19:30;94653.91;;;10.20;100.00
3102;BME280;1561;42.666;23.392;2023-11-21T14:24:41;94655.25;;;10.43;100.00
3102;BME280;1561;42.666;23.392;2023-11-21T14:27:23;94650.44;;;10.21;100.00
3102;BME280;1561;42.666;23.392;2023-11-21T14:29:56;94660.13;;;10.08;100.00
3102;BME280;1561;42.666;23.392;2023-11-21T14:32:28;94655.13;;;10.35;100.00
3102;BME280;1561;42.666;23.392;2023-11-21T14:35:15;94655.00;;;10.08;100.00
3102;BME280;1561;42.666;23.392;2023-11-21T14:37:44;94633.59;;;9.99;100.00
3102;BME280;1561;42.666;23.392;2023-11-21T14:40:33;94646.38;;;9.99;100.00